Fortune Amaryllis — VRDT3 — position and weather

sailwx.info

Track history (hours):
 
Tides and Currents Weather Stations Pressure Air Temp Water Temp Dewpoint Dewpoint Depression Visibility Wind Speed Wind Dir Waves Ship Positions

Fortune Amaryllis

Last reported at 2015-Mar-13 19:28 UTC. Time now 2015-Mar-28 22:17 UTC.
Position N 37°35' E 122°40'.
Warning: this ship's position is 15 days out of date.

Length 175 m; draft 9.7 m.

Type: Cargo ship. MMSI: 477046800.

Date/timePositionNaut miles runAvg speedWind from/ knotsBaromVisibWave heightAir tempDewpointWater temp
2015-Mar-13 19:28N 37°35' E 122°40'1212.8
2015-Mar-13 18:33N 37°39' E 122°26'1212.5
2015-Mar-13 17:34N 37°44' E 122°12'1212.2
2015-Mar-13 16:33N 37°47' E 121°57'1212.3
2015-Mar-13 15:34N 37°50' E 121°42'1212.3
2015-Mar-13 14:33N 37°53' E 121°27'1312.4
2015-Mar-13 13:31N 37°56' E 121°11'1212.3
2015-Mar-13 12:33N 37°58' E 120°56'1211.8
2015-Mar-13 11:33N 38°01' E 120°41'1211.2
2015-Mar-13 10:30N 38°02' E 120°27'9 9.0
2015-Mar-13 09:32N 37°55' E 120°19'1111.2
2015-Mar-13 08:33N 37°45' E 120°13'7 7.2
2015-Mar-13 07:31N 37°39' E 120°16'1 0.5
2015-Mar-13 06:23N 37°39' E 120°17'0 0.0
2015-Mar-13 04:29N 37°39' E 120°17'0 0.0
2015-Mar-13 03:29N 37°39' E 120°17'0 0.0
2015-Mar-13 02:11N 37°39' E 120°17'0 0.0
2015-Mar-13 00:23N 37°39' E 120°17'0 0.0
2015-Mar-12 23:17N 37°39' E 120°17'0 0.0
2015-Mar-12 20:17N 37°39' E 120°17'0 0.0
2015-Mar-12 17:17N 37°39' E 120°17'0 0.0
2015-Mar-12 16:29N 37°39' E 120°17'0 0.0
2015-Mar-12 15:23N 37°39' E 120°17'0 0.0
2015-Mar-12 14:11N 37°39' E 120°17'0 0.0
2015-Mar-12 13:05N 37°39' E 120°17'0 0.0
2015-Mar-12 11:29N 37°39' E 120°17'0 0.0
2015-Mar-12 10:05N 37°39' E 120°17'0 0.0
2015-Mar-12 08:05N 37°39' E 120°17'0 0.0
2015-Mar-12 07:05N 37°39' E 120°17'0 0.0
2015-Mar-12 02:29N 37°39' E 120°17'0 0.0
2015-Mar-11 23:29N 37°39' E 120°17'0 0.0
2015-Mar-11 22:17N 37°39' E 120°17'0 0.0
2015-Mar-11 10:05N 37°39' E 120°17'0 0.0
2015-Mar-11 09:23N 37°39' E 120°17'0 0.0
2015-Mar-11 08:17N 37°39' E 120°17'0 0.0
2015-Mar-11 07:23N 37°39' E 120°17'0 0.0
2015-Mar-11 05:29N 37°39' E 120°17'0 0.0
2015-Mar-10 22:05N 37°39' E 120°17'0 0.0
2015-Mar-10 21:23N 37°39' E 120°17'0 0.0
2015-Mar-10 15:05N 37°39' E 120°17'0 0.0
2015-Mar-10 14:29N 37°39' E 120°17'0 0.0
2015-Mar-10 11:29N 37°39' E 120°17'0 0.0
2015-Mar-10 10:05N 37°39' E 120°17'0 0.0
2015-Mar-10 08:29N 37°39' E 120°17'0 0.0
2015-Mar-10 07:05N 37°39' E 120°17'1 1.0
2015-Mar-10 06:29N 37°38' E 120°17'8 8.6
2015-Mar-10 05:33N 37°39' E 120°06'7 6.6
2015-Mar-10 04:29N 37°45' E 120°02'0 0.1
2015-Mar-10 03:05N 37°45' E 120°03'0 0.0
2015-Mar-10 00:23N 37°45' E 120°03'0 0.0
2015-Mar-09 23:17N 37°45' E 120°03'0 0.0
2015-Mar-09 22:11N 37°45' E 120°03'0 0.0
2015-Mar-09 17:23N 37°45' E 120°02'0 0.0
2015-Mar-09 15:29N 37°45' E 120°02'0 0.0
2015-Mar-09 13:17N 37°45' E 120°02'0 0.1
2015-Mar-09 12:29N 37°45' E 120°02'0 0.0
2015-Mar-09 10:29N 37°45' E 120°02'0 0.0
2015-Mar-09 08:17N 37°45' E 120°02'0 0.0
2015-Mar-09 06:23N 37°45' E 120°02'0 0.0
2015-Mar-09 05:23N 37°45' E 120°02'0 0.0
2015-Mar-09 03:05N 37°45' E 120°02'0 0.0
2015-Mar-09 01:17N 37°45' E 120°02'0 0.0
2015-Mar-08 20:17N 37°45' E 120°02'0 0.0
2015-Mar-08 17:05N 37°45' E 120°02'0 0.1
2015-Mar-08 16:29N 37°45' E 120°02'0 0.1
2015-Mar-08 12:18N 37°45' E 120°03'6 8.4
2015-Mar-08 11:32N 37°50' E 120°08'1212.2
2015-Mar-08 10:32N 37°58' E 120°20'3611.5
2015-Mar-08 07:22N 37°58' E 121°06'1113.3
2015-Mar-08 06:33N 37°55' E 121°19'1313.1
2015-Mar-08 05:33N 37°52' E 121°35'1312.7
2015-Mar-08 04:33N 37°49' E 121°51'1212.4
2015-Mar-08 03:33N 37°45' E 122°06'1312.5
2015-Mar-08 02:33N 37°41' E 122°21'1312.9
2015-Mar-08 01:32N 37°37' E 122°36'2013.6
2015-Mar-08 00:04N 37°30' E 122°60'714.2
2015-Mar-07 23:33N 37°23' E 123°04'  
Track history (hours):
 
Tides and Currents Weather Stations Pressure Air Temp Water Temp Dewpoint Dewpoint Depression Visibility Wind Speed Wind Dir Waves Ship Positions

Fortune Amaryllis

Last reported at 2015-Mar-13 19:28 UTC. Time now 2015-Mar-28 22:17 UTC.
Position N 37°35' E 122°40'.
Warning: this ship's position is 15 days out of date.

Length 175 m; draft 9.7 m.

Type: Cargo ship. MMSI: 477046800.

Date/timePositionNaut miles runAvg speedWind from/ knotsBaromVisibWave heightAir tempDewpointWater temp
2015-Mar-13 19:28N 37°35' E 122°40'1212.8
2015-Mar-13 18:33N 37°39' E 122°26'1212.5
2015-Mar-13 17:34N 37°44' E 122°12'1212.2
2015-Mar-13 16:33N 37°47' E 121°57'1212.3
2015-Mar-13 15:34N 37°50' E 121°42'1212.3
2015-Mar-13 14:33N 37°53' E 121°27'1312.4
2015-Mar-13 13:31N 37°56' E 121°11'1212.3
2015-Mar-13 12:33N 37°58' E 120°56'1211.8
2015-Mar-13 11:33N 38°01' E 120°41'1211.2
2015-Mar-13 10:30N 38°02' E 120°27'9 9.0
2015-Mar-13 09:32N 37°55' E 120°19'1111.2
2015-Mar-13 08:33N 37°45' E 120°13'7 7.2
2015-Mar-13 07:31N 37°39' E 120°16'1 0.5
2015-Mar-13 06:23N 37°39' E 120°17'0 0.0
2015-Mar-13 04:29N 37°39' E 120°17'0 0.0
2015-Mar-13 03:29N 37°39' E 120°17'0 0.0
2015-Mar-13 02:11N 37°39' E 120°17'0 0.0
2015-Mar-13 00:23N 37°39' E 120°17'0 0.0
2015-Mar-12 23:17N 37°39' E 120°17'0 0.0
2015-Mar-12 20:17N 37°39' E 120°17'0 0.0
2015-Mar-12 17:17N 37°39' E 120°17'0 0.0
2015-Mar-12 16:29N 37°39' E 120°17'0 0.0
2015-Mar-12 15:23N 37°39' E 120°17'0 0.0
2015-Mar-12 14:11N 37°39' E 120°17'0 0.0
2015-Mar-12 13:05N 37°39' E 120°17'0 0.0
2015-Mar-12 11:29N 37°39' E 120°17'0 0.0
2015-Mar-12 10:05N 37°39' E 120°17'0 0.0
2015-Mar-12 08:05N 37°39' E 120°17'0 0.0
2015-Mar-12 07:05N 37°39' E 120°17'0 0.0
2015-Mar-12 02:29N 37°39' E 120°17'0 0.0
2015-Mar-11 23:29N 37°39' E 120°17'0 0.0
2015-Mar-11 22:17N 37°39' E 120°17'0 0.0
2015-Mar-11 10:05N 37°39' E 120°17'0 0.0
2015-Mar-11 09:23N 37°39' E 120°17'0 0.0
2015-Mar-11 08:17N 37°39' E 120°17'0 0.0
2015-Mar-11 07:23N 37°39' E 120°17'0 0.0
2015-Mar-11 05:29N 37°39' E 120°17'0 0.0
2015-Mar-10 22:05N 37°39' E 120°17'0 0.0
2015-Mar-10 21:23N 37°39' E 120°17'0 0.0
2015-Mar-10 15:05N 37°39' E 120°17'0 0.0
2015-Mar-10 14:29N 37°39' E 120°17'0 0.0
2015-Mar-10 11:29N 37°39' E 120°17'0 0.0
2015-Mar-10 10:05N 37°39' E 120°17'0 0.0
2015-Mar-10 08:29N 37°39' E 120°17'0 0.0
2015-Mar-10 07:05N 37°39' E 120°17'1 1.0
2015-Mar-10 06:29N 37°38' E 120°17'8 8.6
2015-Mar-10 05:33N 37°39' E 120°06'7 6.6
2015-Mar-10 04:29N 37°45' E 120°02'0 0.1
2015-Mar-10 03:05N 37°45' E 120°03'0 0.0
2015-Mar-10 00:23N 37°45' E 120°03'0 0.0
2015-Mar-09 23:17N 37°45' E 120°03'0 0.0
2015-Mar-09 22:11N 37°45' E 120°03'0 0.0
2015-Mar-09 17:23N 37°45' E 120°02'0 0.0
2015-Mar-09 15:29N 37°45' E 120°02'0 0.0
2015-Mar-09 13:17N 37°45' E 120°02'0 0.1
2015-Mar-09 12:29N 37°45' E 120°02'0 0.0
2015-Mar-09 10:29N 37°45' E 120°02'0 0.0
2015-Mar-09 08:17N 37°45' E 120°02'0 0.0
2015-Mar-09 06:23N 37°45' E 120°02'0 0.0
2015-Mar-09 05:23N 37°45' E 120°02'0 0.0
2015-Mar-09 03:05N 37°45' E 120°02'0 0.0
2015-Mar-09 01:17N 37°45' E 120°02'0 0.0
2015-Mar-08 20:17N 37°45' E 120°02'0 0.0
2015-Mar-08 17:05N 37°45' E 120°02'0 0.1
2015-Mar-08 16:29N 37°45' E 120°02'0 0.1
2015-Mar-08 12:18N 37°45' E 120°03'6 8.4
2015-Mar-08 11:32N 37°50' E 120°08'1212.2
2015-Mar-08 10:32N 37°58' E 120°20'3611.5
2015-Mar-08 07:22N 37°58' E 121°06'1113.3
2015-Mar-08 06:33N 37°55' E 121°19'1313.1
2015-Mar-08 05:33N 37°52' E 121°35'1312.7
2015-Mar-08 04:33N 37°49' E 121°51'1212.4
2015-Mar-08 03:33N 37°45' E 122°06'1312.5
2015-Mar-08 02:33N 37°41' E 122°21'1312.9
2015-Mar-08 01:32N 37°37' E 122°36'2013.6
2015-Mar-08 00:04N 37°30' E 122°60'714.2
2015-Mar-07 23:33N 37°23' E 123°04'  

Dump ship's entire track history